sensor_id;sensor_type;location;lat;lon;timestamp;temperature;humidity
52103;DHT22;38101;53.126;6.878;2024-02-23T16:35:21;7.50;99.90
52103;DHT22;38101;53.126;6.878;2024-02-23T16:37:47;7.40;99.90
52103;DHT22;38101;53.126;6.878;2024-02-23T16:40:20;7.40;99.90
52103;DHT22;38101;53.126;6.878;2024-02-23T16:42:48;7.40;99.90
52103;DHT22;38101;53.126;6.878;2024-02-23T16:45:14;7.40;99.90
52103;DHT22;38101;53.126;6.878;2024-02-23T16:47:40;7.40;99.90
52103;DHT22;38101;53.126;6.878;2024-02-23T16:50:06;7.40;99.90
52103;DHT22;38101;53.126;6.878;2024-02-23T16:52:32;7.40;99.90
52103;DHT22;38101;53.126;6.878;2024-02-23T16:54:57;7.30;99.90
52103;DHT22;38101;53.126;6.878;2024-02-23T16:57:25;7.40;99.90
52103;DHT22;38101;53.126;6.878;2024-02-23T16:59:50;7.30;99.90
52103;DHT22;38101;53.126;6.878;2024-02-23T17:02:16;7.30;99.90
52103;DHT22;38101;53.126;6.878;2024-02-23T17:04:42;7.30;99.90
52103;DHT22;38101;53.126;6.878;2024-02-23T17:07:07;7.30;99.90
52103;DHT22;38101;53.126;6.878;2024-02-23T17:09:33;7.30;99.90
52103;DHT22;38101;53.126;6.878;2024-02-23T17:11:59;7.20;99.90
52103;DHT22;38101;53.126;6.878;2024-02-23T17:14:25;7.20;99.90
52103;DHT22;38101;53.126;6.878;2024-02-23T17:16:51;7.20;99.90
52103;DHT22;38101;53.126;6.878;2024-02-23T17:19:17;7.20;99.90
52103;DHT22;38101;53.126;6.878;2024-02-23T17:21:42;7.20;99.90
52103;DHT22;38101;53.126;6.878;2024-02-23T17:24:08;7.20;99.90
52103;DHT22;38101;53.126;6.878;2024-02-23T17:26:34;7.20;99.90
52103;DHT22;38101;53.126;6.878;2024-02-23T17:28:59;7.20;99.90
52103;DHT22;38101;53.126;6.878;2024-02-23T17:31:25;7.30;99.90
52103;DHT22;38101;53.126;6.878;2024-02-23T17:33:51;7.20;99.90
52103;DHT22;38101;53.126;6.878;2024-02-23T17:36:17;7.20;99.90
52103;DHT22;38101;53.126;6.878;2024-02-23T17:38:42;7.20;99.90
52103;DHT22;38101;53.126;6.878;2024-02-23T17:41:08;7.30;99.90
52103;DHT22;38101;53.126;6.878;2024-02-23T17:43:34;7.20;99.90
52103;DHT22;38101;53.126;6.878;2024-02-23T17:45:59;7.20;99.90
52103;DHT22;38101;53.126;6.878;2024-02-23T17:48:26;7.20;99.90
52103;DHT22;38101;53.126;6.878;2024-02-23T17:50:53;7.20;99.90
52103;DHT22;38101;53.126;6.878;2024-02-23T17:53:18;7.20;99.90
52103;DHT22;38101;53.126;6.878;2024-02-23T17:55:45;7.20;99.90
52103;DHT22;38101;53.126;6.878;2024-02-23T17:58:10;7.20;99.90
52103;DHT22;38101;53.126;6.878;2024-02-23T18:00:36;7.10;99.90
52103;DHT22;38101;53.126;6.878;2024-02-23T18:03:02;7.10;99.90
52103;DHT22;38101;53.126;6.878;2024-02-23T18:05:29;7.10;99.90
52103;DHT22;38101;53.126;6.878;2024-02-23T18:07:55;7.10;99.90
52103;DHT22;38101;53.126;6.878;2024-02-23T18:10:21;7.00;99.90
52103;DHT22;38101;53.126;6.878;2024-02-23T18:12:47;7.00;99.90
52103;DHT22;38101;53.126;6.878;2024-02-23T18:15:13;7.00;99.90
52103;DHT22;38101;53.126;6.878;2024-02-23T18:17:39;7.00;99.90
52103;DHT22;38101;53.126;6.878;2024-02-23T18:20:05;7.00;99.90
52103;DHT22;38101;53.126;6.878;2024-02-23T18:22:31;6.90;99.90
52103;DHT22;38101;53.126;6.878;2024-02-23T18:24:56;6.90;99.90
52103;DHT22;38101;53.126;6.878;2024-02-23T18:27:22;6.90;99.90
52103;DHT22;38101;53.126;6.878;2024-02-23T18:29:51;6.90;99.90
52103;DHT22;38101;53.126;6.878;2024-02-23T18:32:17;6.90;99.90
52103;DHT22;38101;53.126;6.878;2024-02-23T18:34:43;6.90;99.90
52103;DHT22;38101;53.126;6.878;2024-02-23T18:37:09;6.90;99.90
52103;DHT22;38101;53.126;6.878;2024-02-23T18:39:35;6.80;99.90
52103;DHT22;38101;53.126;6.878;2024-02-23T18:42:01;6.80;99.90
52103;DHT22;38101;53.126;6.878;2024-02-23T18:44:27;6.90;99.90
52103;DHT22;38101;53.126;6.878;2024-02-23T18:46:53;6.90;99.90
52103;DHT22;38101;53.126;6.878;2024-02-23T18:49:19;6.80;99.90
52103;DHT22;38101;53.126;6.878;2024-02-23T18:51:45;6.80;99.90
52103;DHT22;38101;53.126;6.878;2024-02-23T18:54:11;6.90;99.90
52103;DHT22;38101;53.126;6.878;2024-02-23T18:56:36;6.80;99.90
52103;DHT22;38101;53.126;6.878;2024-02-23T18:59:02;6.80;99.90
52103;DHT22;38101;53.126;6.878;2024-02-23T19:01:29;6.70;99.90
52103;DHT22;38101;53.126;6.878;2024-02-23T19:03:55;6.70;99.90
52103;DHT22;38101;53.126;6.878;2024-02-23T19:06:20;6.70;99.90
52103;DHT22;38101;53.126;6.878;2024-02-23T19:08:46;6.60;99.90
52103;DHT22;38101;53.126;6.878;2024-02-23T19:11:12;6.60;99.90
52103;DHT22;38101;53.126;6.878;2024-02-23T19:13:38;6.50;99.90
52103;DHT22;38101;53.126;6.878;2024-02-23T19:16:04;6.50;99.90
52103;DHT22;38101;53.126;6.878;2024-02-23T19:18:29;6.50;99.90
52103;DHT22;38101;53.126;6.878;2024-02-23T19:20:55;6.40;99.90
52103;DHT22;38101;53.126;6.878;2024-02-23T19:23:21;6.40;99.90
52103;DHT22;38101;53.126;6.878;2024-02-23T19:25:46;6.40;99.90
52103;DHT22;38101;53.126;6.878;2024-02-23T19:28:12;6.40;99.90
52103;DHT22;38101;53.126;6.878;2024-02-23T19:30:38;6.30;99.90
52103;DHT22;38101;53.126;6.878;2024-02-23T19:33:08;6.30;99.90
52103;DHT22;38101;53.126;6.878;2024-02-23T19:35:34;6.30;99.90
52103;DHT22;38101;53.126;6.878;2024-02-23T19:38:00;6.30;99.90
52103;DHT22;38101;53.126;6.878;2024-02-23T19:40:25;6.20;99.90
52103;DHT22;38101;53.126;6.878;2024-02-23T19:42:51;6.30;99.90
52103;DHT22;38101;53.126;6.878;2024-02-23T19:45:17;6.20;99.90
52103;DHT22;38101;53.126;6.878;2024-02-23T19:47:43;6.20;99.90
52103;DHT22;38101;53.126;6.878;2024-02-23T19:50:09;6.20;99.90
52103;DHT22;38101;53.126;6.878;2024-02-23T19:52:34;6.20;99.90
52103;DHT22;38101;53.126;6.878;2024-02-23T19:55:00;6.20;99.90
52103;DHT22;38101;53.126;6.878;2024-02-23T19:57:26;6.10;99.90
52103;DHT22;38101;53.126;6.878;2024-02-23T19:59:52;6.10;99.90
52103;DHT22;38101;53.126;6.878;2024-02-23T20:02:17;6.10;99.90
52103;DHT22;38101;53.126;6.878;2024-02-23T20:04:43;6.10;99.90
52103;DHT22;38101;53.126;6.878;2024-02-23T20:07:09;6.10;99.90
52103;DHT22;38101;53.126;6.878;2024-02-23T20:09:38;6.20;99.90
52103;DHT22;38101;53.126;6.878;2024-02-23T20:12:04;6.10;99.90
52103;DHT22;38101;53.126;6.878;2024-02-23T20:14:30;6.20;99.90
52103;DHT22;38101;53.126;6.878;2024-02-23T20:16:56;6.20;99.90
52103;DHT22;38101;53.126;6.878;2024-02-23T20:19:22;6.20;99.90
52103;DHT22;38101;53.126;6.878;2024-02-23T20:21:48;6.20;99.90
52103;DHT22;38101;53.126;6.878;2024-02-23T20:24:13;6.20;99.90
52103;DHT22;38101;53.126;6.878;2024-02-23T20:26:39;6.30;99.90
52103;DHT22;38101;53.126;6.878;2024-02-23T20:29:06;6.30;99.90
52103;DHT22;38101;53.126;6.878;2024-02-23T20:31:33;6.30;99.90
52103;DHT22;38101;53.126;6.878;2024-02-23T20:34:03;6.30;99.90
52103;DHT22;38101;53.126;6.878;2024-02-23T20:36:28;6.30;99.90
52103;DHT22;38101;53.126;6.878;2024-02-23T20:38:54;6.20;99.90
